sim
Sign-in with your pilot id or email,
or register
Callsign
Passwort

Schedule Details

Flight Number: RYR7777 (3)
Departure: Chania International Airport (LGSA) at 12:05
Arrival: Thessaloniki International Airport (LGTS) at 13:25
Route: Ryanair Passenger Schedule. Enter filed route here before submitting Pirep.

Weather Information
Getting current METAR information for LGSA 172220Z 00000KT 9999 FEW016 SCT080 23/21 Q1013
Getting current METAR information for LGTS 172220Z VRB03KT 9999 FEW025 21/16 Q1015 NOSIG

Schedule Frequency

Route Map